»·PEaware :: N9401L KRNO-KSMF

N9401L :: KRNO-KSMF

FLIGHT INFORMATION

Flight Status: Arrived
Operator: Privately registered:
United States
More flights under this callsign
Pilot: Dusty S. (32100)
Aircraft: CESSNA 172 SKYHAWK
(C172)
More flights by this aircraft type
Origin: KRNO Reno/Tahoe Intl
United States
Destination: KSMF Sacramento Intl
United States
More flights between these airports :: More routes between these airports
Route: +
File this flight plan on PilotEdge
Remarks:
Altitude:
(Current/Filed)
0ft
Speed:
(Current/Filed)
0kts
Departed: 16-Nov-20 07:35 PM
Arrived: 16-Nov-20 08:34 PM
Distance/Time
Traveled:
98nm/0:59
Distance/Time
To Go:
Arrived

Flight Plot

Page will automatically refresh every two minutes.

Flight plan parsing failed; only flown route is shown


Map Options




Map Legend


Flown Route
Filed Route
Departure Airport
Arrival Airport
Navaid (VOR, NDB)
Fix

Horizontal Profiles

Position Reports

Time Latitude Longitude Heading Altitude Ground
Speed
16-Nov-20 19:33 39.472659 -119.811375 238 6355ft 83kts
16-Nov-20 19:34 39.468420 -119.838694 288 7038ft 82kts
16-Nov-20 19:35 39.474212 -119.865868 279 7712ft 77kts
16-Nov-20 19:36 39.476906 -119.894485 272 8303ft 79kts
16-Nov-20 19:37 39.474601 -119.924047 260 8880ft 81kts
16-Nov-20 19:38 39.468034 -119.953732 246 9429ft 82kts
16-Nov-20 19:39 39.453994 -119.978371 229 9943ft 82kts
16-Nov-20 19:40 39.440958 -120.003405 239 10446ft 80kts
16-Nov-20 19:41 39.428513 -120.029620 232 10870ft 85kts
16-Nov-20 19:42 39.414962 -120.053949 229 11323ft 83kts
16-Nov-20 19:43 39.398896 -120.076116 228 11704ft 87kts
16-Nov-20 19:44 39.382936 -120.100602 232 12100ft 86kts
16-Nov-20 19:45 39.369641 -120.125299 240 12464ft 84kts
16-Nov-20 19:46 39.356898 -120.152240 236 12629ft 90kts
16-Nov-20 19:47 39.340933 -120.181714 235 12504ft 109kts
16-Nov-20 19:48 39.323461 -120.214135 235 12335ft 99kts
16-Nov-20 19:49 39.308531 -120.242842 233 12271ft 87kts
16-Nov-20 19:50 39.293595 -120.269415 233 12396ft 84kts
16-Nov-20 19:51 39.279792 -120.296635 238 12461ft 89kts
16-Nov-20 19:52 39.266131 -120.326339 238 12516ft 93kts
16-Nov-20 19:53 39.251226 -120.357063 236 12420ft 107kts
16-Nov-20 19:54 39.235268 -120.390027 239 12425ft 105kts
16-Nov-20 19:55 39.219881 -120.423401 239 12289ft 103kts
16-Nov-20 19:56 39.205976 -120.453211 238 12326ft 88kts
16-Nov-20 19:57 39.193793 -120.482395 240 12269ft 87kts
16-Nov-20 19:58 39.180134 -120.508982 237 12300ft 82kts
16-Nov-20 19:59 39.167228 -120.535985 240 12507ft 85kts
16-Nov-20 20:00 39.151983 -120.563492 237 12550ft 100kts
16-Nov-20 20:01 39.136037 -120.599694 241 12367ft 112kts
16-Nov-20 20:02 39.118153 -120.634494 238 12295ft 110kts
16-Nov-20 20:03 39.105619 -120.664331 242 12584ft 87kts
16-Nov-20 20:04 39.094796 -120.692905 245 12618ft 95kts
16-Nov-20 20:05 39.082330 -120.724898 238 12612ft 101kts
16-Nov-20 20:06 39.068042 -120.757000 243 12657ft 101kts
16-Nov-20 20:08 39.054849 -120.790957 244 12573ft 108kts
16-Nov-20 20:09 39.041613 -120.825960 244 12549ft 107kts
16-Nov-20 20:10 39.027255 -120.860143 243 12524ft 107kts
16-Nov-20 20:11 39.013526 -120.894330 237 12499ft 107kts
16-Nov-20 20:12 38.997033 -120.926998 234 12475ft 107kts
16-Nov-20 20:13 38.980326 -120.959106 236 12489ft 104kts
16-Nov-20 20:14 38.963632 -120.990395 238 12392ft 104kts
16-Nov-20 20:15 38.949664 -121.023705 239 11856ft 111kts
16-Nov-20 20:16 38.934428 -121.061459 245 11085ft 120kts
16-Nov-20 20:17 38.921132 -121.101088 250 10393ft 118kts
16-Nov-20 20:18 38.907781 -121.139748 244 9269ft 116kts
16-Nov-20 20:19 38.894007 -121.177126 243 7983ft 116kts
16-Nov-20 20:20 38.878414 -121.212027 240 6752ft 113kts
16-Nov-20 20:21 38.862619 -121.245888 237 5576ft 107kts
16-Nov-20 20:22 38.844361 -121.278968 235 4814ft 114kts
16-Nov-20 20:23 38.825689 -121.315501 239 3937ft 118kts
16-Nov-20 20:24 38.808320 -121.352547 237 2926ft 114kts
16-Nov-20 20:25 38.792972 -121.387018 240 2165ft 103kts
16-Nov-20 20:26 38.778490 -121.417434 237 1777ft 98kts
16-Nov-20 20:26 38.765603 -121.441293 234 1664ft 96kts
16-Nov-20 20:27 38.749849 -121.470537 238 1731ft 97kts
16-Nov-20 20:28 38.739543 -121.501862 256 2009ft 95kts
16-Nov-20 20:29 38.737034 -121.537249 272 2216ft 101kts
16-Nov-20 20:31 38.737084 -121.574496 259 1841ft 78kts
16-Nov-20 20:31 38.731149 -121.594893 225 1129ft 76kts
16-Nov-20 20:32 38.711945 -121.601080 179 224ft 66kts
16-Nov-20 20:33 38.698442 -121.601174 188 21ft 33kts
16-Nov-20 20:34 38.687749 -121.601393 182 20ft 38kts
16-Nov-20 20:35 38.682829 -121.598828 183 20ft 15kts
16-Nov-20 20:36 38.681008 -121.597530 182 20ft 0kts
16-Nov-20 20:37 38.681008 -121.597530 182 20ft 0kts

Navigation Log

Ident Type
Flight plan parsing failed, navigation log unavailable